Time;durP1;ratioP1;P1;durP2;ratioP2;P2;SDS_P1;SDS_P2;PMS_P1;PMS_P2;Temp;Humidity;BMP_temperature;BMP_pressure;BME280_temperature;BME280_humidity;BME280_pressure;Samples;Min_cycle;Max_cycle;Signal;HPM_P1;HPM_P2
2023/11/25 00:01:49;;;;;;;0.10;0.10;;;;;;;8.94;34.51;97133.09;5023400;28;20681;-72
2023/11/25 00:04:14;;;;;;;0.50;0.20;;;;;;;9.14;36.09;97164.59;5017845;28;20033;-71
2023/11/25 00:06:40;;;;;;;0.43;0.10;;;;;;;9.07;36.28;97162.84;5052586;28;20041;-72
2023/11/25 00:09:06;;;;;;;0.20;0.10;;;;;;;8.91;35.70;97155.97;5033354;28;20036;-71
2023/11/25 00:11:34;;;;;;;0.85;0.20;;;;;;;8.93;35.84;97157.41;5027282;28;20029;-71
2023/11/25 00:13:59;;;;;;;0.20;0.10;;;;;;;8.89;36.65;97160.50;5047926;28;20128;-71
2023/11/25 00:16:24;;;;;;;0.40;0.10;;;;;;;8.72;36.88;97154.59;5049504;28;20094;-71
2023/11/25 00:18:52;;;;;;;0.60;0.15;;;;;;;8.64;37.54;97152.84;5046658;28;21056;-70
2023/11/25 00:21:18;;;;;;;0.65;0.20;;;;;;;8.65;37.66;97144.91;5032832;28;20033;-71
2023/11/25 00:23:43;;;;;;;0.98;0.20;;;;;;;8.76;37.76;97155.88;5030975;28;20033;-70
2023/11/25 00:26:11;;;;;;;0.47;0.10;;;;;;;8.69;39.64;97157.50;5030102;28;20815;-71
2023/11/25 00:28:39;;;;;;;0.75;0.20;;;;;;;8.66;39.52;97156.06;5004772;28;20037;-71
2023/11/25 00:31:07;;;;;;;0.50;0.10;;;;;;;8.59;38.98;97166.28;5028682;28;20039;-71
2023/11/25 00:33:32;;;;;;;0.45;0.15;;;;;;;8.63;41.15;97156.41;5043006;28;20083;-71
2023/11/25 00:35:58;;;;;;;1.02;0.10;;;;;;;8.60;40.83;97156.75;5045634;28;20037;-71
2023/11/25 00:38:23;;;;;;;0.10;0.10;;;;;;;8.30;39.55;97122.81;5027974;28;20112;-69
2023/11/25 00:40:51;;;;;;;0.70;0.20;;;;;;;8.56;40.26;97158.88;5034258;28;20040;-71
2023/11/25 00:43:21;;;;;;;0.45;0.10;;;;;;;8.61;39.89;97153.97;5035812;28;20025;-71
2023/11/25 00:45:47;;;;;;;0.52;0.20;;;;;;;8.54;39.62;97152.22;5027106;28;20480;-71
2023/11/25 00:48:13;;;;;;;0.77;0.20;;;;;;;8.61;39.21;97158.34;5033890;28;20036;-70
2023/11/25 00:50:40;;;;;;;0.47;0.20;;;;;;;8.50;40.52;97125.84;5050562;28;20832;-72
2023/11/25 00:53:08;;;;;;;0.17;0.10;;;;;;;8.72;40.88;97159.78;5032065;28;20041;-71
2023/11/25 00:55:36;;;;;;;0.22;0.10;;;;;;;8.68;39.87;97148.94;5029069;28;20310;-70
2023/11/25 00:58:03;;;;;;;0.20;0.10;;;;;;;8.34;40.75;97123.28;5034736;28;20044;-71
2023/11/25 01:00:30;;;;;;;0.60;0.13;;;;;;;8.56;41.43;97158.06;5021932;28;20028;-71
2023/11/25 01:02:56;;;;;;;0.10;0.10;;;;;;;8.55;40.57;97153.84;5034015;28;20033;-72
2023/11/25 01:05:21;;;;;;;0.47;0.13;;;;;;;8.70;43.27;97156.56;5046147;28;20741;-70
2023/11/25 01:07:47;;;;;;;0.65;0.10;;;;;;;8.69;42.47;97154.94;5025666;28;20028;-71
2023/11/25 01:10:12;;;;;;;0.10;0.10;;;;;;;8.56;39.29;97156.28;5041991;28;20017;-71
2023/11/25 01:12:38;;;;;;;0.68;0.20;;;;;;;8.42;37.14;97159.56;5012321;28;20025;-71
2023/11/25 01:15:04;;;;;;;0.88;0.20;;;;;;;8.40;38.20;97145.94;5021726;28;20067;-70
2023/11/25 01:17:30;;;;;;;0.38;0.17;;;;;;;8.55;38.55;97166.81;5007176;28;20041;-71
2023/11/25 01:19:55;;;;;;;0.75;0.20;;;;;;;8.44;37.77;97163.59;5023568;28;20049;-72
2023/11/25 01:22:21;;;;;;;0.38;0.10;;;;;;;8.16;36.21;97119.16;5025577;28;20029;-70
2023/11/25 01:24:47;;;;;;;0.17;0.10;;;;;;;8.21;38.16;97105.69;5023972;28;20557;-68
2023/11/25 01:27:14;;;;;;;0.32;0.10;;;;;;;8.57;39.14;97165.66;5023318;28;20037;-69
2023/11/25 01:29:39;;;;;;;0.85;0.20;;;;;;;8.39;35.10;97150.28;5023505;28;20083;-70
2023/11/25 01:32:07;;;;;;;0.17;0.10;;;;;;;8.34;33.15;97160.38;5010679;28;21537;-71
2023/11/25 01:34:35;;;;;;;0.15;0.10;;;;;;;8.48;34.95;97163.28;5009032;28;20033;-71
2023/11/25 01:37:02;;;;;;;1.05;0.10;;;;;;;8.33;36.72;97121.69;5022278;28;20033;-70
2023/11/25 01:39:30;;;;;;;0.13;0.10;;;;;;;8.64;36.95;97174.38;5028511;28;20037;-71
2023/11/25 01:41:57;;;;;;;0.00;0.00;;;;;;;8.56;33.69;97165.81;5022925;28;20124;-72
2023/11/25 01:44:23;;;;;;;0.15;0.10;;;;;;;8.49;36.31;97150.16;5044036;28;20028;-69
2023/11/25 01:46:51;;;;;;;0.15;0.10;;;;;;;8.71;37.73;97158.97;5027002;28;20058;-72
2023/11/25 01:49:20;;;;;;;0.22;0.15;;;;;;;8.64;37.19;97166.59;5041171;28;20112;-72
2023/11/25 01:51:49;;;;;;;0.55;0.25;;;;;;;8.59;35.55;97161.13;5028028;28;20048;-72
2023/11/25 01:54:15;;;;;;;0.10;0.10;;;;;;;8.53;33.70;97168.75;5022149;28;20099;-70
2023/11/25 01:56:44;;;;;;;0.47;0.13;;;;;;;8.12;33.05;97125.59;5030288;28;20081;-72
2023/11/25 01:59:11;;;;;;;0.20;0.10;;;;;;;8.09;32.92;97115.59;5024567;28;20492;-70
2023/11/25 02:01:37;;;;;;;0.20;0.10;;;;;;;8.36;33.29;97158.41;5039382;28;20111;-70
2023/11/25 02:04:04;;;;;;;0.10;0.10;;;;;;;7.95;33.91;97116.28;5026800;28;20036;-71
2023/11/25 02:06:30;;;;;;;0.40;0.10;;;;;;;8.25;34.80;97149.22;5027094;28;20631;-71
2023/11/25 02:08:55;;;;;;;0.40;0.13;;;;;;;8.14;34.00;97167.69;5028845;28;20483;-73
2023/11/25 02:11:25;;;;;;;0.35;0.10;;;;;;;8.18;35.28;97143.09;5024749;28;20032;-73
2023/11/25 02:13:50;;;;;;;0.90;0.20;;;;;;;8.09;34.31;97151.84;5030859;28;20530;-70
2023/11/25 02:16:16;;;;;;;0.57;0.20;;;;;;;8.12;36.60;97181.75;5027260;28;20052;-71
2023/11/25 02:18:44;;;;;;;0.60;0.10;;;;;;;8.13;33.97;97153.13;5043228;28;21620;-70
2023/11/25 02:21:10;;;;;;;0.82;0.10;;;;;;;8.08;34.25;97147.63;5038999;28;20354;-71
2023/11/25 02:23:38;;;;;;;0.00;0.00;;;;;;;8.18;36.74;97150.06;5011116;28;20029;-70
2023/11/25 02:26:04;;;;;;;0.10;0.10;;;;;;;8.12;35.16;97142.94;5026482;28;20025;-71
2023/11/25 02:28:33;;;;;;;0.10;0.10;;;;;;;8.09;33.39;97149.25;5043315;28;20024;-73
2023/11/25 02:31:01;;;;;;;0.22;0.10;;;;;;;7.98;33.04;97119.34;5027473;28;20046;-72
2023/11/25 02:33:34;;;;;;;0.25;0.10;;;;;;;8.11;32.94;97129.19;5028375;28;20020;-72
2023/11/25 02:35:59;;;;;;;0.10;0.10;;;;;;;7.77;33.06;97081.03;5028383;28;20029;-72
2023/11/25 02:38:25;;;;;;;0.57;0.10;;;;;;;8.09;34.49;97139.69;5022921;28;20699;-74
2023/11/25 02:40:50;;;;;;;0.22;0.10;;;;;;;7.99;33.80;97141.66;5005161;28;20021;-74
2023/11/25 02:43:16;;;;;;;0.22;0.10;;;;;;;8.07;33.16;97140.84;5022268;28;20036;-73
2023/11/25 02:45:42;;;;;;;0.88;0.20;;;;;;;7.91;33.51;97115.00;5025233;28;20106;-73
2023/11/25 02:48:09;;;;;;;0.22;0.10;;;;;;;7.93;33.26;97118.22;5022066;28;20472;-71
2023/11/25 02:50:34;;;;;;;0.22;0.10;;;;;;;8.13;32.13;97137.59;5021661;28;20058;-72
2023/11/25 02:53:00;;;;;;;0.17;0.10;;;;;;;7.86;32.68;97081.81;5018248;28;20574;-74
2023/11/25 02:55:27;;;;;;;0.88;0.20;;;;;;;7.99;32.68;97143.44;5040355;28;20025;-70
2023/11/25 02:57:53;;;;;;;1.10;0.20;;;;;;;7.95;32.68;97168.03;5023633;28;20060;-72
2023/11/25 03:02:53;;;;;;;0.30;0.13;;;;;;;7.96;32.45;97149.75;5044638;28;20663;-73
2023/11/25 03:05:22;;;;;;;0.35;0.10;;;;;;;7.90;32.51;97158.16;5030249;28;20021;-71
2023/11/25 03:07:49;;;;;;;0.47;0.10;;;;;;;8.01;32.58;97149.25;5016845;28;20740;-72
2023/11/25 03:10:18;;;;;;;0.10;0.10;;;;;;;7.99;32.08;97146.81;5024409;28;20029;-70
2023/11/25 03:12:45;;;;;;;0.22;0.10;;;;;;;8.06;34.61;97158.13;5036242;28;20033;-70
2023/11/25 03:15:12;;;;;;;1.77;0.20;;;;;;;8.03;33.32;97175.78;5032354;28;20025;-71
2023/11/25 03:17:38;;;;;;;0.25;0.10;;;;;;;7.95;33.51;97162.84;5030637;28;20036;-70
2023/11/25 03:20:06;;;;;;;0.03;0.03;;;;;;;8.01;35.42;97144.91;5028399;28;20021;-71
2023/11/25 03:22:33;;;;;;;0.32;0.10;;;;;;;7.95;32.70;97147.31;5031173;28;20797;-70
2023/11/25 03:25:00;;;;;;;0.10;0.10;;;;;;;7.88;33.14;97155.75;5033825;28;20820;-71
2023/11/25 03:27:28;;;;;;;0.43;0.10;;;;;;;7.95;35.12;97153.31;5025699;28;20938;-71
2023/11/25 03:29:54;;;;;;;0.63;0.10;;;;;;;7.82;37.22;97130.50;5040101;28;20598;-70
2023/11/25 03:32:20;;;;;;;0.43;0.15;;;;;;;7.80;34.29;97158.34;5017052;28;20024;-71
2023/11/25 03:34:46;;;;;;;0.52;0.10;;;;;;;7.58;33.74;97121.00;5031479;28;20442;-71
2023/11/25 03:37:13;;;;;;;0.15;0.10;;;;;;;7.85;34.57;97166.44;5010443;28;20028;-69
2023/11/25 03:39:41;;;;;;;1.17;0.10;;;;;;;7.85;35.18;97168.22;5031288;28;20045;-70
2023/11/25 03:42:06;;;;;;;1.35;0.20;;;;;;;7.55;34.85;97125.69;5045773;28;20117;-71
2023/11/25 03:44:34;;;;;;;0.95;0.17;;;;;;;7.78;35.83;97168.03;5029742;28;20029;-71
2023/11/25 03:47:04;;;;;;;0.20;0.10;;;;;;;7.58;37.58;97131.34;5028472;28;20104;-69
2023/11/25 03:49:30;;;;;;;0.28;0.13;;;;;;;7.91;38.03;97167.56;5031858;28;20039;-69
2023/11/25 03:51:58;;;;;;;1.17;0.20;;;;;;;7.98;38.06;97173.69;5053658;28;20708;-69
2023/11/25 03:54:23;;;;;;;0.13;0.10;;;;;;;7.88;36.00;97183.41;5030589;28;20557;-70
2023/11/25 03:56:49;;;;;;;0.22;0.10;;;;;;;7.75;33.01;97196.03;5035747;28;20033;-70
2023/11/25 03:59:14;;;;;;;0.05;0.05;;;;;;;7.69;33.56;97190.50;5031411;28;20036;-72
2023/11/25 04:01:42;;;;;;;0.10;0.10;;;;;;;7.81;32.46;97167.72;5037606;28;20404;-71
2023/11/25 04:04:11;;;;;;;0.10;0.10;;;;;;;7.85;35.12;97174.19;5041086;28;20124;-71
2023/11/25 04:06:41;;;;;;;0.00;0.00;;;;;;;7.84;32.58;97177.72;5016622;28;21861;-72
2023/11/25 04:09:11;;;;;;;0.10;0.10;;;;;;;7.84;32.33;97182.09;5034607;28;20112;-71
2023/11/25 04:11:43;;;;;;;0.20;0.10;;;;;;;7.76;31.86;97166.56;5027787;28;20029;-72
2023/11/25 04:14:09;;;;;;;0.10;0.10;;;;;;;7.70;32.20;97168.03;5048397;28;20839;-70
2023/11/25 04:16:34;;;;;;;0.20;0.10;;;;;;;7.62;32.32;97186.94;5016136;28;20039;-71
2023/11/25 04:19:00;;;;;;;1.00;0.20;;;;;;;7.59;34.18;97184.69;5032249;28;20076;-73
2023/11/25 04:21:26;;;;;;;0.38;0.10;;;;;;;7.30;33.14;97126.47;5034321;28;20020;-71
2023/11/25 04:23:57;;;;;;;0.52;0.13;;;;;;;7.53;34.06;97179.34;5028000;28;20480;-71
2023/11/25 04:26:24;;;;;;;0.10;0.10;;;;;;;7.53;33.67;97182.75;5031270;28;20079;-70
2023/11/25 04:28:50;;;;;;;0.10;0.10;;;;;;;7.49;32.95;97192.59;5046513;28;20029;-70
2023/11/25 04:31:20;;;;;;;0.30;0.10;;;;;;;7.60;33.16;97180.34;5035392;28;20064;-70
2023/11/25 04:33:48;;;;;;;0.10;0.10;;;;;;;7.49;32.98;97184.03;5033380;28;20028;-70
2023/11/25 04:36:17;;;;;;;0.10;0.10;;;;;;;7.51;33.31;97166.56;5035949;28;20181;-71
2023/11/25 04:38:43;;;;;;;0.67;0.10;;;;;;;7.43;33.57;97169.13;5043846;28;20104;-70
2023/11/25 04:41:08;;;;;;;0.30;0.10;;;;;;;7.45;33.46;97182.75;5050779;28;20030;-72
2023/11/25 04:43:34;;;;;;;0.50;0.10;;;;;;;7.54;33.12;97168.03;5045217;28;20029;-71
2023/11/25 04:46:04;;;;;;;0.10;0.10;;;;;;;7.45;34.26;97182.75;5025429;28;20037;-71
2023/11/25 04:48:34;;;;;;;0.30;0.10;;;;;;;7.46;33.74;97200.66;5033805;28;20559;-72
2023/11/25 04:50:59;;;;;;;0.17;0.10;;;;;;;7.56;34.61;97199.75;5030536;28;20025;-71
2023/11/25 04:53:24;;;;;;;0.70;0.10;;;;;;;7.17;34.82;97159.72;5019330;28;20048;-70
2023/11/25 04:55:50;;;;;;;0.00;0.00;;;;;;;7.57;35.35;97198.75;5034438;28;20036;-69
2023/11/25 04:58:18;;;;;;;0.28;0.20;;;;;;;7.31;34.64;97161.69;5051698;28;20049;-71
2023/11/25 05:00:43;;;;;;;0.20;0.13;;;;;;;7.63;36.61;97205.84;5036608;28;20575;-72
2023/11/25 05:03:09;;;;;;;0.22;0.10;;;;;;;7.47;34.49;97204.88;5032118;28;20041;-70
2023/11/25 05:05:37;;;;;;;0.93;0.15;;;;;;;7.58;36.03;97201.19;5031779;28;20512;-68
2023/11/25 05:08:04;;;;;;;0.35;0.20;;;;;;;7.59;36.93;97201.97;5026804;28;20034;-71
2023/11/25 05:10:32;;;;;;;0.20;0.10;;;;;;;7.30;34.12;97165.25;5036273;28;20094;-69
2023/11/25 05:13:00;;;;;;;0.30;0.15;;;;;;;7.50;33.59;97229.59;5021187;28;20492;-73
2023/11/25 05:15:25;;;;;;;0.55;0.10;;;;;;;7.49;33.40;97221.03;5029396;28;20025;-72
2023/11/25 05:17:53;;;;;;;0.55;0.10;;;;;;;7.50;33.13;97225.25;5031306;28;20032;-72
2023/11/25 05:20:19;;;;;;;0.93;0.20;;;;;;;7.55;33.29;97222.19;5013717;28;20127;-70
2023/11/25 05:22:47;;;;;;;0.10;0.10;;;;;;;7.49;33.30;97239.16;5030110;28;20045;-72
2023/11/25 05:25:15;;;;;;;0.55;0.20;;;;;;;7.56;33.64;97249.69;5028053;28;20037;-70
2023/11/25 05:27:43;;;;;;;0.17;0.10;;;;;;;7.51;34.49;97242.38;5027754;28;20563;-70
2023/11/25 05:30:13;;;;;;;0.10;0.10;;;;;;;7.63;35.35;97253.25;5026376;28;20769;-70
2023/11/25 05:32:42;;;;;;;0.30;0.13;;;;;;;7.63;35.33;97250.66;5036639;28;21142;-70
2023/11/25 05:35:08;;;;;;;0.65;0.20;;;;;;;7.50;36.18;97251.13;5040786;28;20036;-71
2023/11/25 05:37:33;;;;;;;0.50;0.13;;;;;;;7.55;37.22;97266.16;5032676;28;20025;-71
2023/11/25 05:39:59;;;;;;;0.25;0.10;;;;;;;7.49;36.77;97272.78;5028716;28;20040;-70
2023/11/25 05:42:27;;;;;;;0.10;0.10;;;;;;;7.44;35.66;97275.03;5034868;28;20025;-72
2023/11/25 05:44:55;;;;;;;0.88;0.17;;;;;;;7.48;36.57;97271.16;5035475;28;20040;-72
2023/11/25 05:47:21;;;;;;;0.35;0.10;;;;;;;7.45;35.54;97271.47;5028659;28;20086;-71
2023/11/25 05:49:49;;;;;;;2.08;0.20;;;;;;;7.45;35.18;97284.41;5036791;28;20425;-69
2023/11/25 05:52:17;;;;;;;0.20;0.10;;;;;;;7.31;36.95;97254.78;5010382;28;20029;-70
2023/11/25 05:54:43;;;;;;;0.43;0.10;;;;;;;7.48;36.75;97286.69;5036142;28;20519;-70
2023/11/25 05:57:09;;;;;;;0.25;0.17;;;;;;;7.42;35.58;97291.69;5034020;28;20040;-72
2023/11/25 05:59:35;;;;;;;0.25;0.10;;;;;;;7.18;37.61;97253.63;5043948;28;20040;-71
2023/11/25 06:02:03;;;;;;;0.45;0.10;;;;;;;7.45;37.88;97301.72;5030440;28;20025;-71
2023/11/25 06:04:30;;;;;;;0.63;0.20;;;;;;;7.44;40.24;97303.47;5029632;28;20029;-70
2023/11/25 06:06:56;;;;;;;0.43;0.20;;;;;;;7.39;36.64;97307.50;5031921;28;20626;-71
2023/11/25 06:09:21;;;;;;;0.43;0.13;;;;;;;7.36;38.09;97310.41;5029409;28;20029;-71
2023/11/25 06:11:50;;;;;;;0.28;0.13;;;;;;;7.37;36.84;97322.34;5032846;28;20028;-69
2023/11/25 06:14:19;;;;;;;1.27;0.30;;;;;;;7.44;40.26;97313.00;5012473;28;20033;-71
2023/11/25 06:16:48;;;;;;;0.00;0.00;;;;;;;7.40;38.36;97322.84;5027124;28;20029;-72
2023/11/25 06:19:17;;;;;;;0.10;0.10;;;;;;;7.39;39.51;97323.84;5027633;28;20041;-70
2023/11/25 06:21:48;;;;;;;0.50;0.17;;;;;;;7.47;40.63;97321.28;5034728;28;20029;-71
2023/11/25 06:24:15;;;;;;;0.57;0.13;;;;;;;7.43;41.13;97330.31;5030388;28;20067;-72
2023/11/25 06:26:41;;;;;;;0.25;0.10;;;;;;;7.16;41.28;97286.56;5043937;28;20127;-71
2023/11/25 06:29:09;;;;;;;0.30;0.10;;;;;;;7.36;40.21;97347.41;5035713;28;20052;-71
2023/11/25 06:31:37;;;;;;;0.35;0.15;;;;;;;7.39;41.03;97357.47;5026252;28;20028;-71
2023/11/25 06:34:03;;;;;;;0.57;0.13;;;;;;;7.28;42.35;97353.38;5024269;28;20793;-71
2023/11/25 06:36:29;;;;;;;1.40;0.40;;;;;;;7.27;43.80;97361.28;5027502;28;20027;-71
2023/11/25 06:38:54;;;;;;;0.45;0.20;;;;;;;7.30;45.04;97364.38;5042723;28;20033;-70
2023/11/25 06:41:28;;;;;;;0.68;0.10;;;;;;;7.36;42.60;97359.53;5013210;28;20187;-70
2023/11/25 06:43:56;;;;;;;0.47;0.10;;;;;;;7.35;43.29;97371.63;5039475;28;20044;-71
2023/11/25 06:46:22;;;;;;;0.60;0.20;;;;;;;7.39;43.23;97366.97;5015464;28;20112;-70
2023/11/25 06:48:48;;;;;;;0.98;0.20;;;;;;;7.23;41.16;97380.66;5028886;28;20055;-69
2023/11/25 06:51:13;;;;;;;1.08;0.20;;;;;;;7.12;39.58;97376.56;5028770;28;20123;-72
2023/11/25 06:53:41;;;;;;;0.30;0.20;;;;;;;7.18;38.21;97383.69;5028269;28;20405;-71
2023/11/25 06:56:13;;;;;;;0.52;0.17;;;;;;;7.20;42.08;97383.53;5028514;28;20420;-69
2023/11/25 06:58:38;;;;;;;0.47;0.13;;;;;;;7.27;40.77;97402.66;5025590;28;20381;-71
2023/11/25 07:01:04;;;;;;;0.10;0.10;;;;;;;7.18;38.94;97400.97;5041398;28;20718;-70
2023/11/25 07:03:30;;;;;;;1.75;0.20;;;;;;;7.25;39.71;97404.56;5030969;28;20056;-71
2023/11/25 07:05:57;;;;;;;1.80;0.20;;;;;;;7.30;40.96;97407.50;5026882;28;20108;-71
2023/11/25 07:08:24;;;;;;;1.08;0.20;;;;;;;7.21;41.18;97426.50;5033432;28;20044;-70
2023/11/25 07:10:53;;;;;;;0.90;0.30;;;;;;;7.14;39.70;97421.16;5027471;28;20021;-70
2023/11/25 07:13:22;;;;;;;0.47;0.20;;;;;;;7.08;39.92;97435.50;5026664;28;20020;-71
2023/11/25 07:15:48;;;;;;;0.28;0.17;;;;;;;7.06;38.68;97437.44;5027435;28;20021;-70
2023/11/25 07:18:18;;;;;;;1.02;0.25;;;;;;;7.07;38.61;97433.06;5012920;28;20037;-71
2023/11/25 07:20:44;;;;;;;0.90;0.20;;;;;;;7.20;39.51;97443.81;5018918;28;20033;-70
2023/11/25 07:23:10;;;;;;;0.75;0.22;;;;;;;7.10;37.79;97446.50;5021188;28;20147;-72
2023/11/25 07:25:38;;;;;;;0.70;0.20;;;;;;;6.98;38.53;97467.56;5033513;28;20064;-73
2023/11/25 07:28:03;;;;;;;0.57;0.20;;;;;;;7.11;38.11;97470.56;5027029;28;20029;-72
2023/11/25 07:30:29;;;;;;;0.73;0.20;;;;;;;6.88;39.01;97441.78;5035722;28;20616;-70
2023/11/25 07:32:54;;;;;;;1.30;0.40;;;;;;;7.16;38.88;97472.72;5033138;28;20036;-71
2023/11/25 07:35:22;;;;;;;0.40;0.22;;;;;;;7.10;40.50;97477.50;5034194;28;20043;-72
2023/11/25 07:37:49;;;;;;;0.55;0.20;;;;;;;7.16;40.12;97493.38;5035138;28;20096;-73
2023/11/25 07:40:15;;;;;;;0.85;0.20;;;;;;;7.08;40.03;97476.03;5031076;28;20039;-71
2023/11/25 07:42:48;;;;;;;0.73;0.25;;;;;;;7.00;38.89;97450.13;5034847;28;20033;-73
2023/11/25 07:45:13;;;;;;;1.08;0.30;;;;;;;6.83;37.45;97455.16;5028144;28;20029;-73
2023/11/25 07:47:40;;;;;;;0.65;0.13;;;;;;;7.19;38.56;97506.00;5016957;28;20041;-73
2023/11/25 07:50:08;;;;;;;0.20;0.10;;;;;;;6.84;35.93;97467.09;5034695;28;20024;-71
2023/11/25 07:52:37;;;;;;;0.85;0.20;;;;;;;7.03;35.69;97484.25;5026342;28;20586;-72
2023/11/25 07:55:09;;;;;;;1.55;0.63;;;;;;;7.16;38.27;97519.25;5032641;28;20025;-71
2023/11/25 07:57:34;;;;;;;1.48;0.30;;;;;;;7.04;37.60;97524.63;5028526;28;20045;-71
2023/11/25 08:00:00;;;;;;;0.57;0.30;;;;;;;6.93;41.76;97504.19;5014491;28;20028;-71
2023/11/25 08:02:28;;;;;;;0.73;0.20;;;;;;;7.17;39.09;97532.00;5047982;28;20025;-72
2023/11/25 08:04:53;;;;;;;0.22;0.10;;;;;;;7.18;38.17;97538.81;5039515;28;20021;-69
2023/11/25 08:07:19;;;;;;;0.65;0.28;;;;;;;7.22;38.95;97536.72;5033343;28;20119;-71
2023/11/25 08:09:45;;;;;;;0.45;0.20;;;;;;;7.19;40.87;97531.84;5031605;28;20606;-72
2023/11/25 08:12:13;;;;;;;2.85;0.43;;;;;;;7.21;38.36;97548.00;5018383;28;20028;-71
2023/11/25 08:14:38;;;;;;;1.02;0.40;;;;;;;7.11;37.03;97553.28;5032614;28;20045;-73
2023/11/25 08:17:04;;;;;;;1.20;0.32;;;;;;;7.17;38.86;97552.69;5021076;28;20116;-70
2023/11/25 08:19:30;;;;;;;1.27;0.40;;;;;;;7.24;40.07;97553.72;5014708;28;20032;-70
2023/11/25 08:21:55;;;;;;;1.23;0.30;;;;;;;7.38;40.29;97556.75;5024260;28;20363;-72
2023/11/25 08:24:21;;;;;;;0.65;0.20;;;;;;;7.41;40.80;97557.25;5014822;28;20033;-72
2023/11/25 08:26:46;;;;;;;0.80;0.20;;;;;;;7.39;44.23;97542.81;5035653;28;20029;-72
2023/11/25 08:29:15;;;;;;;0.98;0.30;;;;;;;7.42;40.47;97573.56;5048423;28;20730;-71
2023/11/25 08:31:45;;;;;;;0.52;0.20;;;;;;;7.36;36.94;97569.00;5036258;28;20029;-70
2023/11/25 08:34:14;;;;;;;0.77;0.20;;;;;;;7.43;39.55;97581.19;5017423;28;20032;-72
2023/11/25 08:36:44;;;;;;;3.20;0.85;;;;;;;7.38;37.45;97570.47;5047991;28;20463;-72
2023/11/25 08:39:13;;;;;;;4.18;1.10;;;;;;;7.32;36.52;97577.06;5012561;28;20036;-72
2023/11/25 08:41:45;;;;;;;2.17;0.52;;;;;;;7.35;35.47;97583.69;5029803;28;20041;-72
2023/11/25 08:44:16;;;;;;;3.63;0.93;;;;;;;7.16;38.45;97547.69;5035777;28;20471;-73
2023/11/25 08:46:45;;;;;;;2.35;0.35;;;;;;;7.47;36.27;97579.91;5027959;28;20058;-72
2023/11/25 08:49:13;;;;;;;1.35;0.38;;;;;;;7.45;32.16;97599.16;5034483;28;20150;-72
2023/11/25 08:51:45;;;;;;;1.58;0.40;;;;;;;7.52;36.50;97589.81;5030594;28;20028;-71
2023/11/25 08:54:12;;;;;;;2.28;0.40;;;;;;;7.55;33.47;97591.28;5033547;28;20099;-69
2023/11/25 08:56:46;;;;;;;0.75;0.20;;;;;;;7.46;36.03;97580.88;5031219;28;20427;-73
2023/11/25 08:59:20;;;;;;;0.75;0.28;;;;;;;7.50;37.37;97600.31;5033344;28;20051;-72
2023/11/25 09:01:53;;;;;;;0.47;0.20;;;;;;;7.58;36.34;97596.16;5023220;28;20105;-73
2023/11/25 09:04:23;;;;;;;0.20;0.10;;;;;;;7.69;35.99;97603.69;5030224;28;20090;-69
2023/11/25 09:06:49;;;;;;;1.10;0.30;;;;;;;7.64;37.00;97596.38;5032640;28;20049;-71
2023/11/25 09:09:16;;;;;;;0.52;0.20;;;;;;;7.40;34.53;97578.88;5016281;28;20117;-72
2023/11/25 09:11:44;;;;;;;0.20;0.10;;;;;;;7.73;33.75;97619.72;5045442;28;20020;-70
2023/11/25 09:14:09;;;;;;;0.45;0.20;;;;;;;7.81;34.14;97617.19;5026133;28;20060;-69
2023/11/25 09:16:37;;;;;;;2.35;0.30;;;;;;;7.74;35.07;97611.81;5037489;28;20026;-73
2023/11/25 09:19:03;;;;;;;0.30;0.10;;;;;;;7.48;36.30;97594.50;5051812;28;20040;-72
2023/11/25 09:21:30;;;;;;;0.90;0.20;;;;;;;7.75;32.16;97651.44;5028386;28;20025;-71
2023/11/25 09:23:56;;;;;;;3.30;0.30;;;;;;;7.68;29.99;97633.09;5017050;28;20396;-68
2023/11/25 09:26:24;;;;;;;0.10;0.10;;;;;;;7.74;32.11;97652.38;5027267;28;20033;-70
2023/11/25 09:28:50;;;;;;;1.05;0.20;;;;;;;7.56;30.30;97611.84;5035292;28;20033;-72
2023/11/25 09:31:21;;;;;;;1.63;0.30;;;;;;;7.86;32.43;97638.25;5029236;28;20065;-72
2023/11/25 09:33:50;;;;;;;0.35;0.20;;;;;;;7.87;29.19;97658.81;5015461;28;20045;-72
2023/11/25 09:36:18;;;;;;;0.63;0.17;;;;;;;7.85;30.45;97649.59;5025504;28;20079;-73
2023/11/25 09:38:44;;;;;;;3.25;0.55;;;;;;;7.76;29.98;97666.81;5031785;28;20037;-71
2023/11/25 09:41:10;;;;;;;0.95;0.30;;;;;;;7.77;32.28;97671.00;5033571;28;20071;-71
2023/11/25 09:43:39;;;;;;;0.90;0.25;;;;;;;7.88;31.32;97667.38;5047219;28;20128;-69
2023/11/25 09:46:05;;;;;;;0.17;0.10;;;;;;;8.03;31.42;97676.25;5029714;28;21181;-72
2023/11/25 09:48:31;;;;;;;0.52;0.20;;;;;;;8.07;29.19;97666.41;5031242;28;20029;-70
2023/11/25 09:50:57;;;;;;;1.98;0.43;;;;;;;7.91;26.66;97676.63;5018171;28;20068;-67
2023/11/25 09:53:28;;;;;;;0.73;0.25;;;;;;;7.87;25.13;97669.16;5007559;28;20049;-68
2023/11/25 09:56:14;;;;;;;1.42;0.38;;;;;;;8.12;29.07;97684.84;5037897;28;20108;-69
2023/11/25 09:58:39;;;;;;;0.98;0.40;;;;;;;8.19;27.83;97672.13;5011128;28;20056;-70
2023/11/25 10:01:12;;;;;;;1.05;0.32;;;;;;;8.19;27.57;97677.31;5032348;28;20028;-70
2023/11/25 10:03:40;;;;;;;1.08;0.45;;;;;;;8.11;24.10;97679.84;5032658;28;20114;-70
2023/11/25 10:06:05;;;;;;;0.30;0.20;;;;;;;8.20;26.70;97687.50;5043724;28;20035;-69
2023/11/25 10:08:34;;;;;;;0.45;0.17;;;;;;;8.32;27.22;97697.59;5035658;28;20033;-70
2023/11/25 10:11:00;;;;;;;1.25;0.50;;;;;;;8.45;28.20;97691.09;5029018;28;20128;-69
2023/11/25 10:13:31;;;;;;;0.47;0.15;;;;;;;8.46;26.34;97677.16;5031804;28;20157;-70
2023/11/25 10:15:57;;;;;;;1.52;0.30;;;;;;;8.51;27.76;97681.09;5017544;28;20580;-72
2023/11/25 10:18:24;;;;;;;0.68;0.25;;;;;;;8.60;28.90;97680.16;5031541;28;20034;-65
2023/11/25 10:20:54;;;;;;;1.05;0.28;;;;;;;8.49;26.02;97699.38;5033337;28;20116;-69
2023/11/25 10:23:23;;;;;;;1.30;0.20;;;;;;;8.54;25.83;97693.72;5043394;28;20477;-69
2023/11/25 10:25:51;;;;;;;0.35;0.10;;;;;;;8.58;25.93;97671.69;5019309;28;20032;-70
2023/11/25 10:28:19;;;;;;;0.88;0.30;;;;;;;8.59;23.63;97689.69;5024545;28;20387;-68
2023/11/25 10:30:53;;;;;;;0.17;0.10;;;;;;;8.60;26.14;97680.97;5029578;28;20033;-68
2023/11/25 10:33:21;;;;;;;0.95;0.20;;;;;;;8.73;28.04;97682.31;5030723;28;20032;-70
2023/11/25 10:35:47;;;;;;;0.00;0.00;;;;;;;8.55;23.14;97692.75;5039208;28;21426;-71
2023/11/25 10:38:15;;;;;;;0.47;0.15;;;;;;;8.62;26.82;97676.44;5028971;28;20084;-70
2023/11/25 10:40:41;;;;;;;1.48;0.20;;;;;;;8.71;26.10;97685.06;5022096;28;20037;-70
2023/11/25 10:43:08;;;;;;;0.45;0.20;;;;;;;8.71;24.24;97682.47;5027503;28;20056;-69
2023/11/25 10:45:34;;;;;;;0.63;0.20;;;;;;;8.70;25.98;97698.19;5037764;28;20017;-70
2023/11/25 10:48:00;;;;;;;0.40;0.17;;;;;;;8.78;26.38;97687.81;5037358;28;20506;-69
2023/11/25 10:50:28;;;;;;;1.20;0.20;;;;;;;8.83;29.35;97680.41;5018629;28;20719;-69
2023/11/25 10:52:58;;;;;;;3.03;0.20;;;;;;;8.74;23.35;97689.91;5003656;28;20060;-69
2023/11/25 10:55:25;;;;;;;;;;;;;;;8.92;27.31;97683.84;5025626;28;20071;-69
2023/11/25 10:57:51;;;;;;;0.65;0.20;;;;;;;8.88;24.12;97692.91;5019891;28;19995;-69
2023/11/25 11:00:19;;;;;;;1.00;0.30;;;;;;;8.87;25.36;97684.34;5027678;28;20029;-70
2023/11/25 11:02:57;;;;;;;0.90;0.20;;;;;;;8.84;25.47;97677.66;4996736;28;20064;-69
2023/11/25 11:06:01;;;;;;;0.20;0.10;;;;;;;8.79;22.13;97685.09;5039286;28;20114;-69
2023/11/25 11:08:36;;;;;;;2.53;0.20;;;;;;;8.95;25.68;97723.22;5019802;28;20056;-70
2023/11/25 11:11:31;;;;;;;1.42;0.43;;;;;;;8.95;25.04;97697.31;5004666;28;20778;-69
2023/11/25 11:14:08;;;;;;;0.65;0.20;;;;;;;8.70;26.47;97670.47;5016827;28;20037;-68
2023/11/25 11:16:39;;;;;;;1.65;0.57;;;;;;;8.77;26.89;97655.91;5005705;28;20021;-69
2023/11/25 11:19:07;;;;;;;1.08;0.32;;;;;;;9.02;24.69;97679.34;5019321;28;20703;-68
2023/11/25 11:21:36;;;;;;;0.90;0.30;;;;;;;8.91;23.53;97677.03;5018454;28;20472;-69
2023/11/25 11:24:04;;;;;;;2.95;0.80;;;;;;;8.99;27.55;97669.28;5022469;28;20036;-69
2023/11/25 11:26:38;;;;;;;4.65;1.70;;;;;;;9.08;22.32;97675.31;5018221;28;20167;-69
2023/11/25 11:29:06;;;;;;;2.70;0.85;;;;;;;9.00;21.01;97682.09;5019090;28;20078;-68
2023/11/25 11:32:01;;;;;;;2.05;0.50;;;;;;;9.01;25.67;97681.09;5005725;28;20606;-70
2023/11/25 11:34:28;;;;;;;0.75;0.30;;;;;;;8.76;24.02;97653.47;5018051;28;20038;-70
2023/11/25 11:36:54;;;;;;;1.08;0.40;;;;;;;8.95;23.65;97689.53;5017393;28;20029;-70
2023/11/25 11:39:54;;;;;;;0.75;0.20;;;;;;;9.00;24.61;97676.91;5011603;28;20507;-70
2023/11/25 11:42:25;;;;;;;0.60;0.20;;;;;;;8.92;24.96;97658.72;5023420;28;20115;-70
2023/11/25 11:45:15;;;;;;;0.30;0.10;;;;;;;9.06;25.33;97678.06;5023907;28;20033;-70
2023/11/25 11:47:44;;;;;;;1.75;0.20;;;;;;;9.05;25.12;97673.81;5027624;28;20025;-70